New Alexander, Ohio
Current Conditions -  °F | °C
As of 1:20 AM on Tuesday 21 Oct 2014 (Local Time) from KCAK Reporting Station
Haze Haze  
Wind Chill: 52°   Ceiling: 300
Heat Index: 52°   Visibility: 2.5mi
Dew Point: 48°   Wind: 6mph
Humidity: 88%   Direction: 250°WSW
Pressure: 29.85"   Gusts: NA
Location:  40.7264°N, 81.025°W
Report Text: KCAK 210520Z 25005KT 2 1/2SM BR OVC003 11/09 A2985 RMK AO2 $
Loading
Personal Weather Stations






























Interactive Weather Map
Tropical Storm Tracking
New forecast layout! Learn more

10-Day Weather Forecast

Advertisements
Track Severe Weather on mobile